createdAt,value
2022-12-19T00:01:36.229Z,29.75
2022-12-19T00:04:08.340Z,29.10
2022-12-19T00:06:35.887Z,29.98
2022-12-19T00:09:02.451Z,27.75
2022-12-19T00:11:29.283Z,27.77
2022-12-19T00:13:55.998Z,28.75
2022-12-19T00:16:24.030Z,28.23
2022-12-19T00:18:51.153Z,30.40
2022-12-19T00:21:23.401Z,29.35
2022-12-19T00:23:50.044Z,29.15
2022-12-19T00:26:20.645Z,28.77
2022-12-19T00:28:48.535Z,27.90
2022-12-19T00:31:15.914Z,27.58
2022-12-19T00:33:43.280Z,27.17
2022-12-19T00:36:12.016Z,26.92
2022-12-19T00:38:38.627Z,26.35
2022-12-19T00:41:09.177Z,27.08
2022-12-19T00:43:35.770Z,27.23
2022-12-19T00:46:06.204Z,29.85
2022-12-19T00:48:32.814Z,29.45
2022-12-19T00:51:01.036Z,28.08
2022-12-19T00:53:27.694Z,28.15
2022-12-19T00:55:54.367Z,28.77
2022-12-19T00:58:20.909Z,28.25
2022-12-19T01:00:47.477Z,27.73
2022-12-19T01:03:14.286Z,28.02
2022-12-19T01:05:42.120Z,26.95
2022-12-19T01:08:09.277Z,27.00
2022-12-19T01:10:35.919Z,28.58
2022-12-19T01:13:02.529Z,24.58
2022-12-19T01:15:29.093Z,27.55
2022-12-19T01:17:55.760Z,27.52
2022-12-19T01:20:29.025Z,25.95
2022-12-19T01:22:56.807Z,26.15
2022-12-19T01:25:25.411Z,27.60
2022-12-19T01:27:54.648Z,26.70
2022-12-19T01:30:21.303Z,26.75
2022-12-19T01:32:47.868Z,26.83
2022-12-19T01:35:21.226Z,26.85
2022-12-19T01:37:48.065Z,25.88
2022-12-19T01:40:14.671Z,29.05
2022-12-19T01:42:41.208Z,25.23
2022-12-19T01:45:07.649Z,25.10
2022-12-19T01:47:53.477Z,25.42
2022-12-19T01:50:39.132Z,26.35
2022-12-19T01:53:09.390Z,26.35
2022-12-19T01:55:37.267Z,25.88
2022-12-19T01:58:04.148Z,26.25
2022-12-19T02:00:31.165Z,27.75
2022-12-19T02:03:01.878Z,24.98
2022-12-19T02:05:28.757Z,27.27
2022-12-19T02:07:55.315Z,28.45
2022-12-19T02:10:21.894Z,24.42
2022-12-19T02:12:48.471Z,24.63
2022-12-19T02:15:15.116Z,26.70
2022-12-19T02:18:10.151Z,26.33
2022-12-19T02:20:55.725Z,26.70
2022-12-19T02:23:50.031Z,25.58
2022-12-19T02:26:50.765Z,25.02
2022-12-19T02:30:05.127Z,24.60
2022-12-19T02:32:53.483Z,26.62
2022-12-19T02:35:28.755Z,24.65
2022-12-19T02:38:31.166Z,25.40
2022-12-19T02:41:23.163Z,25.40
2022-12-19T02:43:53.827Z,26.37
2022-12-19T02:46:25.890Z,27.45
2022-12-19T02:48:52.490Z,26.48
2022-12-19T02:51:19.094Z,24.85
2022-12-19T02:53:45.696Z,26.05
2022-12-19T02:56:12.125Z,26.15
2022-12-19T02:58:46.723Z,26.30
2022-12-19T03:01:50.481Z,25.48
2022-12-19T03:04:36.016Z,26.55
2022-12-19T03:07:04.285Z,24.52
2022-12-19T03:09:40.079Z,25.30
2022-12-19T03:14:44.023Z,26.55
2022-12-19T03:17:10.624Z,25.37
2022-12-19T03:19:38.237Z,28.25
2022-12-19T03:22:04.819Z,24.90
2022-12-19T03:24:31.404Z,26.25
2022-12-19T03:27:00.233Z,26.02
2022-12-19T03:29:36.329Z,27.95
2022-12-19T03:32:05.723Z,26.15
2022-12-19T03:34:39.653Z,27.55
2022-12-19T03:37:07.604Z,25.48
2022-12-19T03:39:37.861Z,29.37
2022-12-19T03:42:23.239Z,25.90
2022-12-19T03:44:50.162Z,27.23
2022-12-19T03:47:24.056Z,28.65
2022-12-19T03:49:51.396Z,28.23
2022-12-19T03:52:42.086Z,30.10
2022-12-19T03:55:32.567Z,28.95
2022-12-19T03:58:05.105Z,29.23
2022-12-19T04:00:31.699Z,28.45
2022-12-19T04:02:58.373Z,29.52
2022-12-19T04:05:26.332Z,27.15
2022-12-19T04:07:55.216Z,27.70
2022-12-19T04:10:22.872Z,27.62
2022-12-19T04:12:52.657Z,29.10
2022-12-19T04:15:20.804Z,26.60
2022-12-19T04:18:05.563Z,25.85
2022-12-19T04:20:32.232Z,26.17
2022-12-19T04:23:08.727Z,26.85
2022-12-19T04:25:37.108Z,26.08
2022-12-19T04:28:09.654Z,26.08
2022-12-19T04:30:37.095Z,28.38
2022-12-19T04:33:04.193Z,25.08
2022-12-19T04:35:30.790Z,27.10
2022-12-19T04:37:57.397Z,25.05
2022-12-19T04:40:23.978Z,24.98
2022-12-19T04:42:50.640Z,24.08
2022-12-19T04:45:17.278Z,24.70
2022-12-19T04:47:43.936Z,25.05
2022-12-19T04:50:10.862Z,24.17
2022-12-19T04:52:37.521Z,25.70
2022-12-19T04:55:04.234Z,25.92
2022-12-19T04:57:31.376Z,24.27
2022-12-19T04:59:58.259Z,28.27
2022-12-19T05:02:25.738Z,25.12
2022-12-19T05:04:52.460Z,23.98
2022-12-19T05:07:20.386Z,25.17
2022-12-19T05:09:47.012Z,27.75
2022-12-19T05:12:13.605Z,24.15
2022-12-19T05:14:41.105Z,24.35
2022-12-19T05:17:07.994Z,25.27
2022-12-19T05:19:34.580Z,26.02
2022-12-19T05:22:01.137Z,25.90
2022-12-19T05:24:27.967Z,24.45
2022-12-19T05:26:54.551Z,23.90
2022-12-19T05:29:21.237Z,25.50
2022-12-19T05:31:47.810Z,26.58
2022-12-19T05:34:14.449Z,25.05
2022-12-19T05:36:41.068Z,26.98
2022-12-19T05:39:07.727Z,27.27
2022-12-19T05:41:34.280Z,25.77
2022-12-19T05:44:00.895Z,26.50
2022-12-19T05:46:27.526Z,23.05
2022-12-19T05:48:54.188Z,27.60
2022-12-19T05:51:21.279Z,23.40
2022-12-19T05:53:47.951Z,23.85
2022-12-19T05:56:19.525Z,24.50
2022-12-19T05:58:46.276Z,25.35
2022-12-19T06:01:14.924Z,25.12
2022-12-19T06:03:41.817Z,25.58
2022-12-19T06:06:11.005Z,25.25
2022-12-19T06:08:37.696Z,25.70
2022-12-19T06:11:04.891Z,24.48
2022-12-19T06:13:31.682Z,25.75
2022-12-19T06:16:05.721Z,25.15
2022-12-19T06:18:32.443Z,26.62
2022-12-19T06:21:03.938Z,25.45
2022-12-19T06:23:31.590Z,26.50
2022-12-19T06:25:58.679Z,25.83
2022-12-19T06:28:26.030Z,28.60
2022-12-19T06:30:52.694Z,24.75
2022-12-19T06:33:19.283Z,23.40
2022-12-19T06:35:45.932Z,25.85
2022-12-19T06:38:15.294Z,24.83
2022-12-19T06:41:02.005Z,26.55
2022-12-19T06:43:28.676Z,25.17
2022-12-19T06:45:56.816Z,25.37
2022-12-19T06:48:23.461Z,23.73
2022-12-19T06:50:50.065Z,25.17
2022-12-19T06:53:19.854Z,26.20
2022-12-19T06:55:46.448Z,24.65
2022-12-19T06:58:13.007Z,26.80
2022-12-19T07:00:39.612Z,26.98
2022-12-19T07:03:07.041Z,25.60
2022-12-19T07:05:33.732Z,25.10
2022-12-19T07:08:00.315Z,26.40
2022-12-19T07:10:27.023Z,28.85
2022-12-19T07:12:53.658Z,25.80
2022-12-19T07:15:20.249Z,27.50
2022-12-19T07:17:46.846Z,30.55
2022-12-19T07:20:14.815Z,31.45
2022-12-19T07:22:41.377Z,25.58
2022-12-19T07:25:08.429Z,25.45
2022-12-19T07:27:36.298Z,27.65
2022-12-19T07:30:04.113Z,27.77
2022-12-19T07:32:30.683Z,24.60
2022-12-19T07:34:57.239Z,27.13
2022-12-19T07:37:23.828Z,27.23
2022-12-19T07:39:50.424Z,24.35
2022-12-19T07:42:17.023Z,25.05
2022-12-19T07:44:43.626Z,24.20
2022-12-19T07:47:10.246Z,24.30
2022-12-19T07:49:37.098Z,23.77
2022-12-19T07:52:03.924Z,23.05
2022-12-19T07:54:30.509Z,22.75
2022-12-19T07:56:57.410Z,23.20
2022-12-19T07:59:29.607Z,24.67
2022-12-19T08:01:57.295Z,25.48
2022-12-19T08:04:24.415Z,25.52
2022-12-19T08:06:50.995Z,26.02
2022-12-19T08:09:17.573Z,23.80
2022-12-19T08:11:44.175Z,23.70
2022-12-19T08:14:10.847Z,23.02
2022-12-19T08:17:11.136Z,21.12
2022-12-19T08:19:27.419Z,22.15
2022-12-19T08:21:54.609Z,22.52
2022-12-19T08:24:21.234Z,21.45
2022-12-19T08:26:48.003Z,21.90
2022-12-19T08:29:14.638Z,21.60
2022-12-19T08:31:41.396Z,21.20
2022-12-19T08:34:08.075Z,21.95
2022-12-19T08:36:34.683Z,19.70
2022-12-19T08:39:01.278Z,20.27
2022-12-19T08:41:27.858Z,19.98
2022-12-19T08:43:55.475Z,19.02
2022-12-19T08:46:22.185Z,19.17
2022-12-19T08:48:48.976Z,18.23
2022-12-19T08:51:15.857Z,18.35
2022-12-19T08:53:43.222Z,29.77
2022-12-19T08:56:14.841Z,29.00
2022-12-19T08:58:41.469Z,23.05
2022-12-19T09:01:11.160Z,25.27
2022-12-19T09:04:22.535Z,25.80
2022-12-19T09:06:27.670Z,24.40
2022-12-19T09:08:54.742Z,24.40
2022-12-19T09:11:27.161Z,23.33
2022-12-19T09:13:59.424Z,21.75
2022-12-19T09:16:29.504Z,23.92
2022-12-19T09:18:59.270Z,22.23
2022-12-19T09:21:27.467Z,33.90
2022-12-19T09:23:58.149Z,27.67
2022-12-19T09:26:27.603Z,22.20
2022-12-19T09:29:00.866Z,25.25
2022-12-19T09:31:28.953Z,29.67
2022-12-19T09:33:55.587Z,21.48
2022-12-19T09:36:24.418Z,24.60
2022-12-19T09:38:53.117Z,23.35
2022-12-19T09:41:38.262Z,19.80
2022-12-19T09:44:23.102Z,21.35
2022-12-19T09:46:57.298Z,22.60
2022-12-19T09:49:25.591Z,19.67
2022-12-19T09:52:29.752Z,21.75
2022-12-19T09:55:05.586Z,18.23
2022-12-19T09:57:52.234Z,19.75
2022-12-19T10:00:20.232Z,21.10
2022-12-19T10:02:50.738Z,21.05
2022-12-19T10:06:06.722Z,19.30
2022-12-19T10:09:20.170Z,17.62
2022-12-19T10:12:38.647Z,19.77
2022-12-19T10:15:02.398Z,17.45
2022-12-19T10:18:06.269Z,18.50
2022-12-19T10:20:38.574Z,16.02
2022-12-19T10:23:42.680Z,16.98
2022-12-19T10:26:24.642Z,17.00
2022-12-19T10:29:18.286Z,14.30
2022-12-19T10:31:55.367Z,19.77
2022-12-19T10:34:30.151Z,17.35
2022-12-19T10:37:25.793Z,15.50
2022-12-19T10:40:05.857Z,17.87
2022-12-19T10:43:10.343Z,15.95
2022-12-19T10:45:59.411Z,16.33
2022-12-19T10:48:31.288Z,17.75
2022-12-19T10:50:58.315Z,20.35
2022-12-19T10:53:32.153Z,17.58
2022-12-19T10:56:02.970Z,18.73
2022-12-19T10:58:36.320Z,15.85
2022-12-19T11:01:25.291Z,17.45
2022-12-19T11:03:53.405Z,17.15
2022-12-19T11:06:35.272Z,18.42
2022-12-19T11:09:23.438Z,14.55
2022-12-19T11:14:44.078Z,15.77
2022-12-19T11:22:28.574Z,43.78
2022-12-19T11:22:47.991Z,53.78
2022-12-19T11:29:47.028Z,34.35
2022-12-19T11:29:55.167Z,24.27
2022-12-19T11:30:09.324Z,29.58
2022-12-19T11:32:41.974Z,28.00
2022-12-19T11:35:36.525Z,24.20
2022-12-19T11:38:05.919Z,21.62
2022-12-19T11:40:53.238Z,25.08
2022-12-19T11:43:44.544Z,21.95
2022-12-19T11:46:21.789Z,21.35
2022-12-19T11:49:11.104Z,22.27
2022-12-19T11:51:55.519Z,21.35
2022-12-19T11:54:23.979Z,20.10
2022-12-19T11:56:50.795Z,19.65
2022-12-19T11:59:37.306Z,19.10
2022-12-19T12:02:34.568Z,18.25
2022-12-19T12:05:12.200Z,16.42
2022-12-19T12:09:02.796Z,19.87
2022-12-19T12:13:19.950Z,18.60
2022-12-19T12:21:31.250Z,23.60
2022-12-19T12:30:28.450Z,18.55
2022-12-19T12:30:59.139Z,18.98
2022-12-19T12:31:26.378Z,19.50
2022-12-19T12:31:51.728Z,17.70
2022-12-19T12:35:16.248Z,16.98
2022-12-19T12:35:38.340Z,17.40
2022-12-19T12:38:33.797Z,17.52
2022-12-19T12:41:17.600Z,17.37
2022-12-19T12:44:07.903Z,17.60
2022-12-19T12:46:37.507Z,18.55
2022-12-19T12:49:05.675Z,15.93
2022-12-19T12:51:33.249Z,15.93
2022-12-19T12:54:07.946Z,17.65
2022-12-19T12:56:37.804Z,15.73
2022-12-19T12:59:06.060Z,16.95
2022-12-19T13:01:37.816Z,15.05
2022-12-19T13:04:20.269Z,17.20
2022-12-19T13:06:50.232Z,16.98
2022-12-19T13:09:16.765Z,16.90
2022-12-19T13:12:46.738Z,16.33
2022-12-19T13:15:37.226Z,14.63
2022-12-19T13:18:14.383Z,15.45
2022-12-19T13:20:47.694Z,13.43
2022-12-19T13:23:26.334Z,17.35
2022-12-19T13:25:53.905Z,13.73
2022-12-19T13:28:23.624Z,15.10
2022-12-19T13:31:20.453Z,17.02
2022-12-19T13:33:55.765Z,14.43
2022-12-19T13:40:01.898Z,16.92
2022-12-19T13:40:09.184Z,16.60
2022-12-19T13:43:10.831Z,15.73
2022-12-19T13:45:38.832Z,15.10
2022-12-19T13:48:12.949Z,15.90
2022-12-19T13:50:40.250Z,17.70
2022-12-19T13:53:15.690Z,14.73
2022-12-19T13:58:20.792Z,14.27
2022-12-19T14:00:56.614Z,13.48
2022-12-19T14:03:32.922Z,13.93
2022-12-19T14:06:17.204Z,15.55
2022-12-19T14:11:44.202Z,16.45
2022-12-19T14:14:25.736Z,14.82
2022-12-19T14:16:54.734Z,17.80
2022-12-19T14:19:23.194Z,16.35
2022-12-19T14:22:11.901Z,17.08
2022-12-19T14:24:36.525Z,14.75
2022-12-19T14:28:22.084Z,16.55
2022-12-19T14:30:28.681Z,14.25
2022-12-19T14:33:44.839Z,17.75
2022-12-19T14:36:06.823Z,15.43
2022-12-19T14:39:19.796Z,14.87
2022-12-19T14:41:09.162Z,17.50
2022-12-19T14:50:16.336Z,16.30
2022-12-19T14:53:34.339Z,15.90
2022-12-19T14:54:18.499Z,16.25
2022-12-19T14:54:55.366Z,14.18
2022-12-19T14:56:03.861Z,16.15
2022-12-19T14:58:52.657Z,14.90
2022-12-19T15:01:09.886Z,15.00
2022-12-19T15:03:42.884Z,14.85
2022-12-19T15:06:48.355Z,14.55
2022-12-19T15:11:00.652Z,15.07
2022-12-19T15:13:47.404Z,14.95
2022-12-19T15:15:25.076Z,14.43
2022-12-19T15:17:53.892Z,15.35
2022-12-19T15:20:20.559Z,16.15
2022-12-19T15:22:47.310Z,16.98
2022-12-19T15:25:36.116Z,14.27
2022-12-19T15:28:02.128Z,15.02
2022-12-19T15:30:28.926Z,15.70
2022-12-19T15:32:55.499Z,13.65
2022-12-19T15:35:22.151Z,14.57
2022-12-19T15:37:48.787Z,15.57
2022-12-19T15:40:16.824Z,14.15
2022-12-19T15:42:44.390Z,16.33
2022-12-19T15:45:19.195Z,14.05
2022-12-19T15:47:45.795Z,13.45
2022-12-19T15:50:23.654Z,14.87
2022-12-19T15:52:57.956Z,14.25
2022-12-19T15:55:26.898Z,14.38
2022-12-19T15:58:00.240Z,14.68
2022-12-19T16:00:33.012Z,14.82
2022-12-19T16:05:46.841Z,13.82
2022-12-19T16:08:15.448Z,14.40
2022-12-19T16:10:42.200Z,15.38
2022-12-19T16:13:23.417Z,14.63
2022-12-19T16:15:50.232Z,14.18
2022-12-19T16:18:17.229Z,15.60
2022-12-19T16:20:44.083Z,15.18
2022-12-19T16:23:11.075Z,13.65
2022-12-19T16:25:47.453Z,13.27
2022-12-19T16:28:27.178Z,15.70
2022-12-19T16:30:55.258Z,14.73
2022-12-19T16:33:23.825Z,16.55
2022-12-19T16:36:07.217Z,15.50
2022-12-19T16:38:34.467Z,15.07
2022-12-19T16:41:01.767Z,15.20
2022-12-19T16:43:29.377Z,14.25
2022-12-19T16:46:00.829Z,15.23
2022-12-19T16:48:29.808Z,16.45
2022-12-19T16:50:57.409Z,16.45
2022-12-19T16:53:24.012Z,14.90
2022-12-19T16:55:50.618Z,15.07
2022-12-19T16:58:21.752Z,15.80
2022-12-19T17:00:48.964Z,15.15
2022-12-19T17:03:18.632Z,15.57
2022-12-19T17:05:45.363Z,14.98
2022-12-19T17:08:12.858Z,14.82
2022-12-19T17:10:40.466Z,16.10
2022-12-19T17:13:07.037Z,14.48
2022-12-19T17:15:36.585Z,15.07
2022-12-19T17:18:04.611Z,14.43
2022-12-19T17:20:35.455Z,13.15
2022-12-19T17:23:04.138Z,13.68
2022-12-19T17:25:31.906Z,15.48
2022-12-19T17:27:58.613Z,16.20
2022-12-19T17:30:25.195Z,15.20
2022-12-19T17:32:53.034Z,15.95
2022-12-19T17:35:27.779Z,14.90
2022-12-19T17:37:55.561Z,16.35
2022-12-19T17:40:23.786Z,15.20
2022-12-19T17:42:50.376Z,14.43
2022-12-19T17:45:17.188Z,15.13
2022-12-19T17:47:44.098Z,17.40
2022-12-19T17:50:26.727Z,14.20
2022-12-19T17:52:53.941Z,14.48
2022-12-19T17:55:22.619Z,16.42
2022-12-19T17:57:49.284Z,18.67
2022-12-19T18:00:17.412Z,14.65
2022-12-19T18:02:45.044Z,15.80
2022-12-19T18:05:19.745Z,16.30
2022-12-19T18:07:46.516Z,16.98
2022-12-19T18:10:17.909Z,16.95
2022-12-19T18:12:44.938Z,18.92
2022-12-19T18:15:11.581Z,15.98
2022-12-19T18:17:38.457Z,17.30
2022-12-19T18:20:15.499Z,17.37
2022-12-19T18:22:42.787Z,18.10
2022-12-19T18:25:17.476Z,15.60
2022-12-19T18:27:44.356Z,16.80
2022-12-19T18:30:16.122Z,15.30
2022-12-19T18:32:47.906Z,15.68
2022-12-19T18:35:19.431Z,16.92
2022-12-19T18:37:46.226Z,15.65
2022-12-19T18:40:31.190Z,16.33
2022-12-19T18:43:00.249Z,17.05
2022-12-19T18:45:40.067Z,17.02
2022-12-19T18:48:07.922Z,16.48
2022-12-19T18:50:34.667Z,15.25
2022-12-19T18:53:01.314Z,15.98
2022-12-19T18:55:29.185Z,16.62
2022-12-19T18:57:55.908Z,16.50
2022-12-19T19:00:24.737Z,17.23
2022-12-19T19:03:01.838Z,17.08
2022-12-19T19:05:30.281Z,15.93
2022-12-19T19:07:57.956Z,16.08
2022-12-19T19:10:26.276Z,15.77
2022-12-19T19:12:52.949Z,17.05
2022-12-19T19:15:23.995Z,16.90
2022-12-19T19:17:52.492Z,15.48
2022-12-19T19:20:19.070Z,16.00
2022-12-19T19:22:45.827Z,15.30
2022-12-19T19:25:12.394Z,16.45
2022-12-19T19:27:39.971Z,17.40
2022-12-19T19:30:07.145Z,16.08
2022-12-19T19:32:33.734Z,15.20
2022-12-19T19:35:00.421Z,17.23
2022-12-19T19:37:27.522Z,17.60
2022-12-19T19:39:54.142Z,16.73
2022-12-19T19:42:20.726Z,17.33
2022-12-19T19:44:47.328Z,17.27
2022-12-19T19:47:13.909Z,16.55
2022-12-19T19:49:40.582Z,17.25
2022-12-19T19:52:07.177Z,14.93
2022-12-19T19:54:34.773Z,16.73
2022-12-19T19:57:01.344Z,16.02
2022-12-19T19:59:31.307Z,17.15
2022-12-19T20:01:58.238Z,17.15
2022-12-19T20:04:25.179Z,17.98
2022-12-19T20:06:54.184Z,17.30
2022-12-19T20:09:20.837Z,16.98
2022-12-19T20:11:47.511Z,17.50
2022-12-19T20:14:14.193Z,17.75
2022-12-19T20:16:40.938Z,20.62
2022-12-19T20:19:07.560Z,20.75
2022-12-19T20:21:34.139Z,17.48
2022-12-19T20:24:00.696Z,18.33
2022-12-19T20:26:27.416Z,18.98
2022-12-19T20:28:54.184Z,18.67
2022-12-19T20:31:21.931Z,18.70
2022-12-19T20:33:48.855Z,19.27
2022-12-19T20:36:15.496Z,16.90
2022-12-19T20:38:42.194Z,19.55
2022-12-19T20:41:08.795Z,18.23
2022-12-19T20:43:35.619Z,17.40
2022-12-19T20:46:10.381Z,21.02
2022-12-19T20:48:37.075Z,18.00
2022-12-19T20:51:06.813Z,19.60
2022-12-19T20:53:34.136Z,16.25
2022-12-19T20:56:02.687Z,20.45
2022-12-19T20:58:30.162Z,17.90
2022-12-19T21:01:21.475Z,16.25
2022-12-19T21:03:48.813Z,17.48
2022-12-19T21:06:16.553Z,18.23
2022-12-19T21:08:43.419Z,17.33
2022-12-19T21:11:10.153Z,19.25
2022-12-19T21:13:37.013Z,17.25
2022-12-19T21:16:07.133Z,18.87
2022-12-19T21:18:34.012Z,18.35
2022-12-19T21:21:00.840Z,19.40
2022-12-19T21:23:27.566Z,17.83
2022-12-19T21:25:57.863Z,18.80
2022-12-19T21:28:24.703Z,18.90
2022-12-19T21:30:59.162Z,19.08
2022-12-19T21:33:26.334Z,16.33
2022-12-19T21:35:53.241Z,19.52
2022-12-19T21:38:19.861Z,18.60
2022-12-19T21:40:46.522Z,18.30
2022-12-19T21:43:13.218Z,19.50
2022-12-19T21:45:39.850Z,17.42
2022-12-19T21:48:06.538Z,17.15
2022-12-19T21:50:33.935Z,19.00
2022-12-19T21:53:03.070Z,19.37
2022-12-19T21:55:29.622Z,19.40
2022-12-19T21:57:56.354Z,18.40
2022-12-19T22:00:23.218Z,19.87
2022-12-19T22:03:12.595Z,19.62
2022-12-19T22:05:36.498Z,19.52
2022-12-19T22:08:06.130Z,19.05
2022-12-19T22:10:32.917Z,19.48
2022-12-19T22:12:59.568Z,19.48
2022-12-19T22:15:26.173Z,18.62
2022-12-19T22:17:52.754Z,18.33
2022-12-19T22:20:19.323Z,19.02
2022-12-19T22:22:45.882Z,20.83
2022-12-19T22:25:12.840Z,19.40
2022-12-19T22:27:39.450Z,19.02
2022-12-19T22:30:11.265Z,18.90
2022-12-19T22:32:38.149Z,18.92
2022-12-19T22:35:05.229Z,17.40
2022-12-19T22:37:31.892Z,20.77
2022-12-19T22:40:00.354Z,17.30
2022-12-19T22:42:30.210Z,20.58
2022-12-19T22:44:56.800Z,17.83
2022-12-19T22:47:23.368Z,18.15
2022-12-19T22:49:53.256Z,19.40
2022-12-19T22:52:19.930Z,20.37
2022-12-19T22:54:46.611Z,19.73
2022-12-19T22:57:13.192Z,19.15
2022-12-19T22:59:40.508Z,20.20
2022-12-19T23:02:07.491Z,18.92
2022-12-19T23:04:35.009Z,17.92
2022-12-19T23:07:01.912Z,18.27
2022-12-19T23:09:28.666Z,20.83
2022-12-19T23:11:55.324Z,19.45
2022-12-19T23:14:21.986Z,17.48
2022-12-19T23:16:48.689Z,19.87
2022-12-19T23:19:15.691Z,18.95
2022-12-19T23:21:42.268Z,19.25
2022-12-19T23:24:08.817Z,19.75
2022-12-19T23:26:36.281Z,20.02
2022-12-19T23:29:06.898Z,19.70
2022-12-19T23:31:33.883Z,19.75
2022-12-19T23:34:00.595Z,19.12
2022-12-19T23:37:08.221Z,16.75
2022-12-19T23:39:16.625Z,18.55
2022-12-19T23:41:43.233Z,18.83
2022-12-19T23:44:10.152Z,19.58
2022-12-19T23:46:37.007Z,19.50
2022-12-19T23:49:03.961Z,19.25
2022-12-19T23:51:30.718Z,20.62
2022-12-19T23:53:57.454Z,19.77
2022-12-19T23:56:28.951Z,19.45
2022-12-19T23:58:55.515Z,21.20
